Map

Track Data

SID SEASON NUMBER BASIN SUBBASIN NAME ISO_TIME NATURE LAT LON WMO_WIND WMO_PRES WMO_AGENCY TRACK_TYPE DIST2LAND LANDFALL IFLAG USA_AGENCY USA_ATCF_ID USA_LAT USA_LON USA_RECORD USA_STATUS USA_WIND USA_PRES USA_SSHS USA_R34_NE USA_R34_SE USA_R34_SW USA_R34_NW USA_R50_NE USA_R50_SE USA_R50_SW USA_R50_NW USA_R64_NE USA_R64_SE USA_R64_SW USA_R64_NW USA_POCI USA_ROCI USA_RMW USA_EYE TOKYO_LAT TOKYO_LON TOKYO_GRADE TOKYO_WIND TOKYO_PRES TOKYO_R50_DIR TOKYO_R50_LONG TOKYO_R50_SHORT TOKYO_R30_DIR TOKYO_R30_LONG TOKYO_R30_SHORT TOKYO_LAND CMA_LAT CMA_LON CMA_CAT CMA_WIND CMA_PRES HKO_LAT HKO_LON HKO_CAT HKO_WIND HKO_PRES NEWDELHI_LAT NEWDELHI_LON NEWDELHI_GRADE NEWDELHI_WIND NEWDELHI_PRES NEWDELHI_CI NEWDELHI_DP NEWDELHI_POCI REUNION_LAT REUNION_LON REUNION_TYPE REUNION_WIND REUNION_PRES REUNION_TNUM REUNION_CI REUNION_RMW REUNION_R34_NE REUNION_R34_SE REUNION_R34_SW REUNION_R34_NW REUNION_R50_NE REUNION_R50_SE REUNION_R50_SW REUNION_R50_NW REUNION_R64_NE REUNION_R64_SE REUNION_R64_SW REUNION_R64_NW BOM_LAT BOM_LON BOM_TYPE BOM_WIND BOM_PRES BOM_TNUM BOM_CI BOM_RMW BOM_R34_NE BOM_R34_SE BOM_R34_SW BOM_R34_NW BOM_R50_NE BOM_R50_SE BOM_R50_SW BOM_R50_NW BOM_R64_NE BOM_R64_SE BOM_R64_SW BOM_R64_NW BOM_ROCI BOM_POCI BOM_EYE BOM_POS_METHOD BOM_PRES_METHOD NADI_LAT NADI_LON NADI_CAT NADI_WIND NADI_PRES WELLINGTON_LAT WELLINGTON_LON WELLINGTON_WIND WELLINGTON_PRES DS824_LAT DS824_LON DS824_STAGE DS824_WIND DS824_PRES TD9636_LAT TD9636_LON TD9636_STAGE TD9636_WIND TD9636_PRES TD9635_LAT TD9635_LON TD9635_WIND TD9635_PRES TD9635_ROCI NEUMANN_LAT NEUMANN_LON NEUMANN_CLASS NEUMANN_WIND NEUMANN_PRES MLC_LAT MLC_LON MLC_CLASS MLC_WIND MLC_PRES USA_GUST BOM_GUST BOM_GUST_PER REUNION_GUST REUNION_GUST_PER USA_SEAHGT USA_SEARAD_NE USA_SEARAD_SE USA_SEARAD_SW USA_SEARAD_NW STORM_SPEED STORM_DIR
1909160S32154 1909 27 SP EA NOT_NAMED 1909-06-08 12:00:00 NR -32.0000 153.900 main 106 106 __________O___ -1 -32.0000 153.900 7 0 0
1909160S32154 1909 27 SP EA NOT_NAMED 1909-06-08 15:00:00 NR -31.9999 153.915 main 106 106 __________P___ -1 -31.9999 153.915 7 0 0
1909160S32154 1909 27 SP EA NOT_NAMED 1909-06-08 18:00:00 NR -32.0198 153.914 main 106 106 __________P___ -1 -32.0198 153.914 7 1 205
1909160S32154 1909 27 SP EA NOT_NAMED 1909-06-08 21:00:00 NR -32.0798 153.881 main 108 99 __________P___ -1 -32.0798 153.881 7 2 209
1909160S32154 1909 27 SP EA NOT_NAMED 1909-06-09 00:00:00 NR -32.2000 153.800 main 104 101 __________O___ -1 -32.2000 153.800 7 4 211
1909160S32154 1909 27 SP EA NOT_NAMED 1909-06-09 03:00:00 NR -32.3927 153.661 main 107 96 __________P___ -1 -32.3927 153.661 7 5 211
1909160S32154 1909 27 SP EA NOT_NAMED 1909-06-09 06:00:00 NR -32.6403 153.481 main 96 87 __________P___ -1 -32.6403 153.481 7 6 211
1909160S32154 1909 27 SP EA NOT_NAMED 1909-06-09 09:00:00 NR -32.9177 153.286 main 93 93 __________P___ -1 -32.9177 153.286 7 6 210
1909160S32154 1909 27 SP EA NOT_NAMED 1909-06-09 12:00:00 NR -33.2000 153.100 main 100 100 __________O___ -1 -33.2000 153.100 7 6 208
1909160S32154 1909 27 SP EA NOT_NAMED 1909-06-09 15:00:00 NR -33.4337 152.956 main 107 101 __________P___ -1 -33.4337 152.956 7 5 206
1909160S32154 1909 27 SP EA NOT_NAMED 1909-06-09 18:00:00 NR -33.6699 152.827 main 119 115 __________P___ -1 -33.6699 152.827 7 5 203
1909160S32154 1909 27 SP EA NOT_NAMED 1909-06-09 21:00:00 NR -33.9212 152.709 main 119 119 __________P___ -1 -33.9212 152.709 7 6 200
1909160S32154 1909 27 SP EA NOT_NAMED 1909-06-10 00:00:00 NR -34.2000 152.600 main 121 118 __________O___ -1 -34.2000 152.600 7 6 196
1909160S32154 1909 27 SP EA NOT_NAMED 1909-06-10 03:00:00 NR -34.5293 152.493 main 123 123 __________P___ -1 -34.5293 152.493 7 7 194
1909160S32154 1909 27 SP EA NOT_NAMED 1909-06-10 06:00:00 NR -34.8849 152.392 main 140 135 __________P___ -1 -34.8849 152.392 7 7 193
1909160S32154 1909 27 SP EA NOT_NAMED 1909-06-10 09:00:00 NR -35.2481 152.296 main 135 128 __________P___ -1 -35.2481 152.296 7 7 193
1909160S32154 1909 27 SP EA NOT_NAMED 1909-06-10 12:00:00 NR -35.6000 152.200 main 134 134 __________O___ -1 -35.6000 152.200 7 7 193
1909160S32154 1909 27 SP EA NOT_NAMED 1909-06-10 15:00:00 NR -35.9263 152.102 main 140 140 __________P___ -1 -35.9263 152.102 7 7 194
1909160S32154 1909 27 SP EA NOT_NAMED 1909-06-10 18:00:00 NR -36.2301 152.003 main 155 155 __________P___ -1 -36.2301 152.003 7 6 195
1909160S32154 1909 27 SP EA NOT_NAMED 1909-06-10 21:00:00 NR -36.5188 151.902 main 162 157 __________P___ -1 -36.5188 151.902 7 6 196
1909160S32154 1909 27 SP EA NOT_NAMED 1909-06-11 00:00:00 NR -36.8000 151.800 main 160 __________O___ -1 -36.8000 151.800 7 6 197

Digital Typhoon Data and Search

About IBTrACS Database

This database is a web-friendly format of International Best Track Archive for Climate Stewardship (IBTrACS), a global best track data archive curated by NOAA dating back to 1842.

Updated: 2021-10-21